Wichita, KS

16:02 CST le 22 décembre 2014 (GMT -0600)
Wichita Mid-Continent | Change Station
CLOSE
Current Station
Aéroport
Location: Wichita,
Altitude: 1332 ft
Stations météo à proximité

Alt. 1332 ft 37.65 °N, 97.43 °W | Updated 9 minutes ago

Mostly Cloudy
Nuageux
53 ° F
Paraît 53 ° F
N
10
Vent Variable Vent de NO

Aujourd'hui
Haut(e) -- | Bas -- ° F
--% Risque de précip.
Hier
Haut(e) -- | Bas -- ° F
Precip. -- pouce
7:41 AM 5:15 PM
Nouvelle lune, 1% visible
Pression 29.55 pouce
Visibilité 10.0 Miles terrestres
Nuages Peu 4000 ft
Nuages épars 6000 ft
Nuages épars 9000 ft
Nuages épars 15000 ft
Nuageux 25000 ft
Point de rosée 35 ° F
Humidité 50%
Précipitations 0.04 pouce
Profondeur de la couche neigeuse Non disponible.
UV 0 sur 12
Pollen .10 sur 12
Qualité de l'air Non disponible.
Flu Activity Non disponible.
METAR KICT 222153Z 31009KT 10SM FEW040 SCT060 SCT090 SCT150 BKN250 12/02 A2955 RMK AO2 SLP007 T01170017

More Conditions Fewer Conditions

Pression 29.55 pouce
Visibilité 10.0 Miles terrestres
Nuages Peu 4000 ft
Nuages épars 6000 ft
Nuages épars 9000 ft
Nuages épars 15000 ft
Nuageux 25000 ft
Point de rosée 35 ° F
Humidité 50%
Précipitations 0.04 pouce
Profondeur de la couche neigeuse Non disponible.
UV 0 sur 12
Pollen .10 sur 12
Qualité de l'air Non disponible.
Flu Activity Non disponible.
METAR KICT 222153Z 31009KT 10SM FEW040 SCT060 SCT090 SCT150 BKN250 12/02 A2955 RMK AO2 SLP007 T01170017

More Conditions Fewer Conditions

10-Day Weather Forecast

Almanac

Astronomie

Dec. 22, 2014 Lever Coucher
Temps réel
Crépuscule civil
Crépuscule nautique
Crépuscule astronomique
Lune
Durée de lumière visible
Longueur du jour
Tomorrow will be .
, % of the Moon is Illuminated

Extrêmes aujourd'hui

State Highs State Lows

Community

WunderPhotos

Upload Photos

1,779,691 Photos téléchargées !

WunderBlogs® & News

Nearby

Qualité de l'air

  Qualité de l'air Indice de la qualité de l'air Polluant
Not available.

Épaisseur de neige

Station Depth Altitude

Activité sismique

Ville Distance Mag. Time & Date
Minimum magnitude displayed is 2.5.

Températures des eaux côtières

Lieu Température

Stations météo à proximité